sensor_id;sensor_type;location;lat;lon;timestamp;P1;durP1;ratioP1;P2;durP2;ratioP2
51814;SDS011;37874;53.158;6.766;2023-07-24T00:00:57;3.67;;;2.40;;
51814;SDS011;37874;53.158;6.766;2023-07-24T00:03:23;3.53;;;2.40;;
51814;SDS011;37874;53.158;6.766;2023-07-24T00:05:48;3.97;;;2.40;;
51814;SDS011;37874;53.158;6.766;2023-07-24T00:08:14;4.15;;;2.53;;
51814;SDS011;37874;53.158;6.766;2023-07-24T00:10:40;4.13;;;2.58;;
51814;SDS011;37874;53.158;6.766;2023-07-24T00:13:05;4.65;;;2.50;;
51814;SDS011;37874;53.158;6.766;2023-07-24T00:15:31;3.45;;;2.38;;
51814;SDS011;37874;53.158;6.766;2023-07-24T00:17:57;3.47;;;2.22;;
51814;SDS011;37874;53.158;6.766;2023-07-24T00:20:22;3.58;;;2.60;;
51814;SDS011;37874;53.158;6.766;2023-07-24T00:22:49;4.30;;;2.67;;
51814;SDS011;37874;53.158;6.766;2023-07-24T00:25:15;4.15;;;2.75;;
51814;SDS011;37874;53.158;6.766;2023-07-24T00:27:40;4.07;;;2.88;;
51814;SDS011;37874;53.158;6.766;2023-07-24T00:30:06;3.53;;;2.47;;
51814;SDS011;37874;53.158;6.766;2023-07-24T00:32:32;4.55;;;2.47;;
51814;SDS011;37874;53.158;6.766;2023-07-24T00:34:58;3.33;;;2.40;;
51814;SDS011;37874;53.158;6.766;2023-07-24T00:37:24;4.32;;;2.67;;
51814;SDS011;37874;53.158;6.766;2023-07-24T00:39:49;4.07;;;2.63;;
51814;SDS011;37874;53.158;6.766;2023-07-24T00:42:15;4.60;;;3.05;;
51814;SDS011;37874;53.158;6.766;2023-07-24T00:44:41;3.70;;;2.33;;
51814;SDS011;37874;53.158;6.766;2023-07-24T00:47:07;4.13;;;2.55;;
51814;SDS011;37874;53.158;6.766;2023-07-24T00:49:33;4.07;;;2.70;;
51814;SDS011;37874;53.158;6.766;2023-07-24T00:51:59;4.15;;;2.63;;
51814;SDS011;37874;53.158;6.766;2023-07-24T00:54:24;3.95;;;2.58;;
51814;SDS011;37874;53.158;6.766;2023-07-24T00:56:55;4.40;;;2.90;;
51814;SDS011;37874;53.158;6.766;2023-07-24T00:59:20;4.07;;;2.60;;
51814;SDS011;37874;53.158;6.766;2023-07-24T01:01:46;4.18;;;2.75;;
51814;SDS011;37874;53.158;6.766;2023-07-24T01:04:13;4.65;;;2.97;;
51814;SDS011;37874;53.158;6.766;2023-07-24T01:06:39;3.65;;;2.53;;
51814;SDS011;37874;53.158;6.766;2023-07-24T01:09:05;4.10;;;2.72;;
51814;SDS011;37874;53.158;6.766;2023-07-24T01:11:39;4.28;;;2.90;;
51814;SDS011;37874;53.158;6.766;2023-07-24T01:14:09;3.50;;;2.63;;
51814;SDS011;37874;53.158;6.766;2023-07-24T01:16:41;3.58;;;2.50;;
51814;SDS011;37874;53.158;6.766;2023-07-24T01:19:33;3.85;;;2.75;;
51814;SDS011;37874;53.158;6.766;2023-07-24T01:24:33;4.55;;;3.00;;
51814;SDS011;37874;53.158;6.766;2023-07-24T01:27:06;4.03;;;2.78;;
51814;SDS011;37874;53.158;6.766;2023-07-24T01:29:32;4.45;;;3.05;;
51814;SDS011;37874;53.158;6.766;2023-07-24T01:31:58;4.00;;;2.70;;
51814;SDS011;37874;53.158;6.766;2023-07-24T01:34:23;3.72;;;2.67;;
51814;SDS011;37874;53.158;6.766;2023-07-24T01:36:49;3.95;;;2.67;;
51814;SDS011;37874;53.158;6.766;2023-07-24T01:39:15;3.90;;;2.75;;
51814;SDS011;37874;53.158;6.766;2023-07-24T01:41:43;4.22;;;3.03;;
51814;SDS011;37874;53.158;6.766;2023-07-24T01:44:09;4.35;;;3.10;;
51814;SDS011;37874;53.158;6.766;2023-07-24T01:46:34;3.97;;;3.03;;
51814;SDS011;37874;53.158;6.766;2023-07-24T01:49:00;4.03;;;2.72;;
51814;SDS011;37874;53.158;6.766;2023-07-24T01:51:25;4.40;;;3.10;;
51814;SDS011;37874;53.158;6.766;2023-07-24T01:53:51;4.45;;;2.90;;
51814;SDS011;37874;53.158;6.766;2023-07-24T01:56:16;4.88;;;3.03;;
51814;SDS011;37874;53.158;6.766;2023-07-24T03:59:59;4.15;;;2.85;;
51814;SDS011;37874;53.158;6.766;2023-07-24T04:02:24;4.28;;;2.40;;
51814;SDS011;37874;53.158;6.766;2023-07-24T04:04:50;5.82;;;3.15;;
51814;SDS011;37874;53.158;6.766;2023-07-24T04:07:16;4.10;;;2.45;;
51814;SDS011;37874;53.158;6.766;2023-07-24T04:09:41;4.55;;;2.55;;
51814;SDS011;37874;53.158;6.766;2023-07-24T04:12:07;3.70;;;2.80;;
51814;SDS011;37874;53.158;6.766;2023-07-24T04:14:32;3.55;;;2.67;;
51814;SDS011;37874;53.158;6.766;2023-07-24T04:16:58;4.00;;;2.97;;
51814;SDS011;37874;53.158;6.766;2023-07-24T04:19:24;3.10;;;2.40;;
51814;SDS011;37874;53.158;6.766;2023-07-24T04:21:50;3.42;;;2.50;;
51814;SDS011;37874;53.158;6.766;2023-07-24T04:24:16;3.63;;;2.53;;
51814;SDS011;37874;53.158;6.766;2023-07-24T04:26:41;3.85;;;2.78;;
51814;SDS011;37874;53.158;6.766;2023-07-24T04:29:07;3.53;;;2.70;;
51814;SDS011;37874;53.158;6.766;2023-07-24T04:31:33;4.28;;;2.80;;
51814;SDS011;37874;53.158;6.766;2023-07-24T04:33:58;3.70;;;2.55;;
51814;SDS011;37874;53.158;6.766;2023-07-24T04:36:24;4.80;;;2.50;;
51814;SDS011;37874;53.158;6.766;2023-07-24T04:38:50;3.17;;;2.47;;
51814;SDS011;37874;53.158;6.766;2023-07-24T04:41:15;3.65;;;2.80;;
51814;SDS011;37874;53.158;6.766;2023-07-24T04:43:41;3.30;;;2.47;;
51814;SDS011;37874;53.158;6.766;2023-07-24T04:46:07;4.43;;;2.58;;
51814;SDS011;37874;53.158;6.766;2023-07-24T04:48:36;3.05;;;2.30;;
51814;SDS011;37874;53.158;6.766;2023-07-24T04:51:01;3.67;;;2.40;;
51814;SDS011;37874;53.158;6.766;2023-07-24T04:53:27;3.30;;;2.42;;
51814;SDS011;37874;53.158;6.766;2023-07-24T04:55:53;3.60;;;2.70;;
51814;SDS011;37874;53.158;6.766;2023-07-24T04:58:19;3.22;;;2.50;;
51814;SDS011;37874;53.158;6.766;2023-07-24T05:00:44;3.33;;;2.33;;
51814;SDS011;37874;53.158;6.766;2023-07-24T05:03:10;3.72;;;2.60;;
51814;SDS011;37874;53.158;6.766;2023-07-24T05:05:39;3.67;;;2.50;;
51814;SDS011;37874;53.158;6.766;2023-07-24T05:08:05;4.22;;;2.85;;
51814;SDS011;37874;53.158;6.766;2023-07-24T05:10:34;3.17;;;2.33;;
51814;SDS011;37874;53.158;6.766;2023-07-24T05:13:00;3.30;;;2.50;;
51814;SDS011;37874;53.158;6.766;2023-07-24T05:15:26;3.85;;;2.92;;
51814;SDS011;37874;53.158;6.766;2023-07-24T05:17:52;3.80;;;2.75;;
51814;SDS011;37874;53.158;6.766;2023-07-24T05:20:17;3.72;;;2.63;;
51814;SDS011;37874;53.158;6.766;2023-07-24T05:22:43;3.40;;;2.50;;
51814;SDS011;37874;53.158;6.766;2023-07-24T05:25:09;3.17;;;2.60;;
51814;SDS011;37874;53.158;6.766;2023-07-24T05:27:35;3.33;;;2.58;;
51814;SDS011;37874;53.158;6.766;2023-07-24T05:30:01;3.92;;;2.67;;
51814;SDS011;37874;53.158;6.766;2023-07-24T05:32:27;3.60;;;2.45;;
51814;SDS011;37874;53.158;6.766;2023-07-24T05:34:52;3.50;;;2.40;;
51814;SDS011;37874;53.158;6.766;2023-07-24T05:37:18;3.30;;;2.50;;
51814;SDS011;37874;53.158;6.766;2023-07-24T05:39:43;6.13;;;2.40;;
51814;SDS011;37874;53.158;6.766;2023-07-24T05:42:09;3.72;;;2.72;;
51814;SDS011;37874;53.158;6.766;2023-07-24T05:44:35;4.03;;;2.40;;
51814;SDS011;37874;53.158;6.766;2023-07-24T05:47:02;3.38;;;2.45;;
51814;SDS011;37874;53.158;6.766;2023-07-24T05:49:28;3.65;;;2.40;;
51814;SDS011;37874;53.158;6.766;2023-07-24T05:51:54;3.85;;;2.50;;
51814;SDS011;37874;53.158;6.766;2023-07-24T05:54:19;3.30;;;2.40;;
51814;SDS011;37874;53.158;6.766;2023-07-24T05:56:45;3.30;;;2.47;;
51814;SDS011;37874;53.158;6.766;2023-07-24T05:59:11;3.60;;;2.30;;
51814;SDS011;37874;53.158;6.766;2023-07-24T06:01:36;3.47;;;2.40;;
51814;SDS011;37874;53.158;6.766;2023-07-24T06:04:02;3.45;;;2.22;;
51814;SDS011;37874;53.158;6.766;2023-07-24T06:06:27;4.25;;;2.60;;
51814;SDS011;37874;53.158;6.766;2023-07-24T06:08:53;3.15;;;2.30;;
51814;SDS011;37874;53.158;6.766;2023-07-24T06:11:19;3.35;;;2.30;;
51814;SDS011;37874;53.158;6.766;2023-07-24T06:13:44;3.60;;;2.40;;
51814;SDS011;37874;53.158;6.766;2023-07-24T06:16:10;3.08;;;1.98;;
51814;SDS011;37874;53.158;6.766;2023-07-24T06:18:38;3.50;;;2.60;;
51814;SDS011;37874;53.158;6.766;2023-07-24T06:21:04;4.03;;;2.50;;
51814;SDS011;37874;53.158;6.766;2023-07-24T06:23:30;4.20;;;2.55;;
51814;SDS011;37874;53.158;6.766;2023-07-24T06:25:55;4.00;;;2.80;;
51814;SDS011;37874;53.158;6.766;2023-07-24T06:28:21;3.00;;;2.30;;
51814;SDS011;37874;53.158;6.766;2023-07-24T06:30:47;3.22;;;2.25;;
51814;SDS011;37874;53.158;6.766;2023-07-24T06:33:12;3.67;;;2.70;;
51814;SDS011;37874;53.158;6.766;2023-07-24T06:35:38;3.15;;;2.35;;
51814;SDS011;37874;53.158;6.766;2023-07-24T06:38:03;3.83;;;2.17;;
51814;SDS011;37874;53.158;6.766;2023-07-24T06:40:29;3.70;;;2.13;;
51814;SDS011;37874;53.158;6.766;2023-07-24T06:42:55;4.38;;;2.22;;
51814;SDS011;37874;53.158;6.766;2023-07-24T06:45:20;3.42;;;2.05;;
51814;SDS011;37874;53.158;6.766;2023-07-24T06:47:46;4.85;;;2.70;;
51814;SDS011;37874;53.158;6.766;2023-07-24T06:50:12;2.85;;;2.08;;
51814;SDS011;37874;53.158;6.766;2023-07-24T06:52:37;4.57;;;2.40;;
51814;SDS011;37874;53.158;6.766;2023-07-24T06:55:03;5.90;;;2.55;;
51814;SDS011;37874;53.158;6.766;2023-07-24T06:57:30;3.22;;;2.50;;
51814;SDS011;37874;53.158;6.766;2023-07-24T06:59:56;3.45;;;2.53;;
51814;SDS011;37874;53.158;6.766;2023-07-24T07:02:22;3.63;;;2.50;;
51814;SDS011;37874;53.158;6.766;2023-07-24T07:04:47;4.00;;;2.55;;
51814;SDS011;37874;53.158;6.766;2023-07-24T07:07:16;3.50;;;2.22;;
51814;SDS011;37874;53.158;6.766;2023-07-24T07:09:41;3.88;;;2.42;;
51814;SDS011;37874;53.158;6.766;2023-07-24T07:12:07;3.30;;;2.33;;
51814;SDS011;37874;53.158;6.766;2023-07-24T07:14:33;4.35;;;2.55;;
51814;SDS011;37874;53.158;6.766;2023-07-24T07:16:58;3.63;;;2.55;;
51814;SDS011;37874;53.158;6.766;2023-07-24T07:19:24;4.25;;;2.50;;
51814;SDS011;37874;53.158;6.766;2023-07-24T07:21:50;3.80;;;2.40;;
51814;SDS011;37874;53.158;6.766;2023-07-24T07:24:16;4.30;;;2.50;;
51814;SDS011;37874;53.158;6.766;2023-07-24T07:26:42;3.67;;;2.30;;
51814;SDS011;37874;53.158;6.766;2023-07-24T07:29:07;3.53;;;2.50;;
51814;SDS011;37874;53.158;6.766;2023-07-24T07:31:33;3.97;;;2.38;;
51814;SDS011;37874;53.158;6.766;2023-07-24T07:33:58;3.63;;;2.50;;
51814;SDS011;37874;53.158;6.766;2023-07-24T07:36:24;3.75;;;2.75;;
51814;SDS011;37874;53.158;6.766;2023-07-24T07:38:50;3.33;;;2.20;;
51814;SDS011;37874;53.158;6.766;2023-07-24T07:41:15;4.72;;;2.50;;
51814;SDS011;37874;53.158;6.766;2023-07-24T07:43:41;3.63;;;2.30;;
51814;SDS011;37874;53.158;6.766;2023-07-24T07:46:06;3.45;;;2.53;;
51814;SDS011;37874;53.158;6.766;2023-07-24T07:48:32;3.80;;;2.40;;
51814;SDS011;37874;53.158;6.766;2023-07-24T07:50:58;3.33;;;2.60;;
51814;SDS011;37874;53.158;6.766;2023-07-24T07:53:23;3.45;;;2.63;;
51814;SDS011;37874;53.158;6.766;2023-07-24T07:55:56;3.72;;;2.55;;
51814;SDS011;37874;53.158;6.766;2023-07-24T07:58:22;3.22;;;2.35;;
51814;SDS011;37874;53.158;6.766;2023-07-24T08:00:48;3.17;;;2.10;;
51814;SDS011;37874;53.158;6.766;2023-07-24T08:03:14;3.28;;;2.58;;
51814;SDS011;37874;53.158;6.766;2023-07-24T08:05:39;3.47;;;2.40;;
51814;SDS011;37874;53.158;6.766;2023-07-24T08:08:05;3.80;;;2.42;;
51814;SDS011;37874;53.158;6.766;2023-07-24T08:10:30;3.85;;;2.47;;
51814;SDS011;37874;53.158;6.766;2023-07-24T08:12:56;3.85;;;2.53;;
51814;SDS011;37874;53.158;6.766;2023-07-24T08:15:22;3.85;;;2.38;;
51814;SDS011;37874;53.158;6.766;2023-07-24T08:17:47;4.43;;;2.95;;
51814;SDS011;37874;53.158;6.766;2023-07-24T08:20:14;3.78;;;2.58;;
51814;SDS011;37874;53.158;6.766;2023-07-24T08:22:40;3.58;;;2.38;;
51814;SDS011;37874;53.158;6.766;2023-07-24T08:25:06;3.40;;;2.47;;
51814;SDS011;37874;53.158;6.766;2023-07-24T08:27:32;5.03;;;2.40;;
51814;SDS011;37874;53.158;6.766;2023-07-24T08:29:57;3.80;;;2.42;;
51814;SDS011;37874;53.158;6.766;2023-07-24T08:32:23;4.20;;;2.60;;
51814;SDS011;37874;53.158;6.766;2023-07-24T08:34:48;3.30;;;1.90;;
51814;SDS011;37874;53.158;6.766;2023-07-24T08:37:14;3.38;;;2.47;;
51814;SDS011;37874;53.158;6.766;2023-07-24T08:39:40;4.22;;;2.10;;
51814;SDS011;37874;53.158;6.766;2023-07-24T08:42:09;3.38;;;2.20;;
51814;SDS011;37874;53.158;6.766;2023-07-24T08:44:36;3.22;;;2.28;;
51814;SDS011;37874;53.158;6.766;2023-07-24T08:47:03;3.88;;;2.42;;
51814;SDS011;37874;53.158;6.766;2023-07-24T08:49:29;3.17;;;2.30;;
51814;SDS011;37874;53.158;6.766;2023-07-24T08:51:56;4.05;;;2.58;;
51814;SDS011;37874;53.158;6.766;2023-07-24T08:54:23;3.55;;;2.40;;
51814;SDS011;37874;53.158;6.766;2023-07-24T08:56:51;3.20;;;2.30;;
51814;SDS011;37874;53.158;6.766;2023-07-24T08:59:18;3.85;;;2.78;;
51814;SDS011;37874;53.158;6.766;2023-07-24T09:01:45;3.33;;;2.55;;
51814;SDS011;37874;53.158;6.766;2023-07-24T09:04:11;3.28;;;2.30;;
51814;SDS011;37874;53.158;6.766;2023-07-24T09:06:37;2.90;;;2.15;;
51814;SDS011;37874;53.158;6.766;2023-07-24T09:09:11;3.05;;;2.25;;
51814;SDS011;37874;53.158;6.766;2023-07-24T09:12:00;4.00;;;2.65;;
51814;SDS011;37874;53.158;6.766;2023-07-24T09:14:26;3.80;;;2.40;;
51814;SDS011;37874;53.158;6.766;2023-07-24T09:17:03;4.18;;;2.40;;
51814;SDS011;37874;53.158;6.766;2023-07-24T09:19:33;4.70;;;2.35;;
51814;SDS011;37874;53.158;6.766;2023-07-24T09:24:48;3.30;;;2.15;;
51814;SDS011;37874;53.158;6.766;2023-07-24T09:27:15;3.92;;;2.50;;
51814;SDS011;37874;53.158;6.766;2023-07-24T09:29:40;3.33;;;2.38;;
51814;SDS011;37874;53.158;6.766;2023-07-24T09:32:07;3.25;;;2.40;;
51814;SDS011;37874;53.158;6.766;2023-07-24T09:34:43;3.92;;;2.40;;
51814;SDS011;37874;53.158;6.766;2023-07-24T09:37:08;3.58;;;2.50;;
51814;SDS011;37874;53.158;6.766;2023-07-24T09:39:34;3.65;;;2.63;;
51814;SDS011;37874;53.158;6.766;2023-07-24T09:42:03;4.05;;;2.70;;
51814;SDS011;37874;53.158;6.766;2023-07-24T09:44:30;4.22;;;2.78;;
51814;SDS011;37874;53.158;6.766;2023-07-24T09:46:57;3.92;;;2.35;;
51814;SDS011;37874;53.158;6.766;2023-07-24T09:49:22;4.22;;;3.10;;
51814;SDS011;37874;53.158;6.766;2023-07-24T09:51:48;3.38;;;2.22;;
51814;SDS011;37874;53.158;6.766;2023-07-24T09:54:22;4.03;;;2.80;;
51814;SDS011;37874;53.158;6.766;2023-07-24T09:56:54;3.58;;;2.58;;
51814;SDS011;37874;53.158;6.766;2023-07-24T09:59:21;4.78;;;2.75;;
51814;SDS011;37874;53.158;6.766;2023-07-24T10:01:47;3.33;;;2.53;;
51814;SDS011;37874;53.158;6.766;2023-07-24T10:04:13;4.40;;;2.70;;
51814;SDS011;37874;53.158;6.766;2023-07-24T10:06:41;3.83;;;2.63;;
51814;SDS011;37874;53.158;6.766;2023-07-24T10:09:08;3.60;;;2.80;;
51814;SDS011;37874;53.158;6.766;2023-07-24T10:11:35;3.58;;;2.50;;
51814;SDS011;37874;53.158;6.766;2023-07-24T10:14:01;3.97;;;2.60;;
51814;SDS011;37874;53.158;6.766;2023-07-24T10:16:26;5.03;;;2.72;;
51814;SDS011;37874;53.158;6.766;2023-07-24T10:18:52;4.28;;;2.85;;
51814;SDS011;37874;53.158;6.766;2023-07-24T10:21:18;4.47;;;2.85;;
51814;SDS011;37874;53.158;6.766;2023-07-24T10:23:52;4.17;;;2.77;;
51814;SDS011;37874;53.158;6.766;2023-07-24T10:26:23;3.90;;;2.60;;
51814;SDS011;37874;53.158;6.766;2023-07-24T10:28:50;3.70;;;2.60;;
51814;SDS011;37874;53.158;6.766;2023-07-24T10:31:22;4.22;;;2.58;;
51814;SDS011;37874;53.158;6.766;2023-07-24T10:33:51;3.22;;;2.60;;
51814;SDS011;37874;53.158;6.766;2023-07-24T10:36:18;4.38;;;2.70;;
51814;SDS011;37874;53.158;6.766;2023-07-24T10:38:45;4.47;;;2.70;;
51814;SDS011;37874;53.158;6.766;2023-07-24T10:41:11;4.75;;;2.50;;
51814;SDS011;37874;53.158;6.766;2023-07-24T10:43:41;4.13;;;2.85;;
51814;SDS011;37874;53.158;6.766;2023-07-24T10:46:18;3.53;;;2.60;;
51814;SDS011;37874;53.158;6.766;2023-07-24T10:48:46;5.90;;;2.97;;
51814;SDS011;37874;53.158;6.766;2023-07-24T10:51:14;4.45;;;2.92;;
51814;SDS011;37874;53.158;6.766;2023-07-24T10:53:44;3.83;;;2.80;;
51814;SDS011;37874;53.158;6.766;2023-07-24T10:56:11;4.57;;;2.97;;
51814;SDS011;37874;53.158;6.766;2023-07-24T10:58:37;3.58;;;2.65;;
51814;SDS011;37874;53.158;6.766;2023-07-24T11:01:03;3.75;;;2.50;;
51814;SDS011;37874;53.158;6.766;2023-07-24T11:03:30;4.35;;;2.80;;
51814;SDS011;37874;53.158;6.766;2023-07-24T11:05:56;3.67;;;2.90;;
51814;SDS011;37874;53.158;6.766;2023-07-24T11:08:23;4.13;;;2.85;;
51814;SDS011;37874;53.158;6.766;2023-07-24T11:13:15;4.05;;;3.13;;
51814;SDS011;37874;53.158;6.766;2023-07-24T11:15:41;4.80;;;2.83;;
51814;SDS011;37874;53.158;6.766;2023-07-24T11:18:07;4.03;;;2.85;;
51814;SDS011;37874;53.158;6.766;2023-07-24T11:20:36;5.97;;;2.95;;
51814;SDS011;37874;53.158;6.766;2023-07-24T11:23:22;6.05;;;3.25;;
51814;SDS011;37874;53.158;6.766;2023-07-24T11:25:52;4.10;;;2.80;;
51814;SDS011;37874;53.158;6.766;2023-07-24T11:28:19;3.90;;;2.50;;
51814;SDS011;37874;53.158;6.766;2023-07-24T11:30:45;3.92;;;2.60;;
51814;SDS011;37874;53.158;6.766;2023-07-24T11:33:12;4.28;;;2.92;;
51814;SDS011;37874;53.158;6.766;2023-07-24T11:35:40;4.47;;;3.00;;
51814;SDS011;37874;53.158;6.766;2023-07-24T11:38:09;3.97;;;2.92;;
51814;SDS011;37874;53.158;6.766;2023-07-24T11:43:05;3.67;;;2.80;;
51814;SDS011;37874;53.158;6.766;2023-07-24T11:45:43;4.15;;;2.83;;
51814;SDS011;37874;53.158;6.766;2023-07-24T11:48:10;4.43;;;2.95;;
51814;SDS011;37874;53.158;6.766;2023-07-24T11:50:43;4.80;;;2.90;;
51814;SDS011;37874;53.158;6.766;2023-07-24T11:53:27;4.50;;;2.97;;
51814;SDS011;37874;53.158;6.766;2023-07-24T11:55:55;4.72;;;2.60;;
51814;SDS011;37874;53.158;6.766;2023-07-24T11:58:22;4.10;;;2.75;;
51814;SDS011;37874;53.158;6.766;2023-07-24T12:00:51;3.90;;;2.45;;
51814;SDS011;37874;53.158;6.766;2023-07-24T12:03:21;4.20;;;2.80;;
51814;SDS011;37874;53.158;6.766;2023-07-24T12:05:47;4.13;;;2.58;;
51814;SDS011;37874;53.158;6.766;2023-07-24T12:08:15;4.70;;;2.72;;
51814;SDS011;37874;53.158;6.766;2023-07-24T12:10:42;3.08;;;2.45;;
51814;SDS011;37874;53.158;6.766;2023-07-24T12:13:08;4.07;;;2.60;;
51814;SDS011;37874;53.158;6.766;2023-07-24T12:15:34;5.13;;;2.85;;
51814;SDS011;37874;53.158;6.766;2023-07-24T12:18:01;4.10;;;2.95;;
51814;SDS011;37874;53.158;6.766;2023-07-24T12:20:27;4.22;;;2.50;;
51814;SDS011;37874;53.158;6.766;2023-07-24T12:22:53;4.45;;;3.15;;
51814;SDS011;37874;53.158;6.766;2023-07-24T12:25:19;3.70;;;2.70;;
51814;SDS011;37874;53.158;6.766;2023-07-24T12:27:45;3.53;;;2.47;;
51814;SDS011;37874;53.158;6.766;2023-07-24T12:30:12;3.83;;;2.50;;
51814;SDS011;37874;53.158;6.766;2023-07-24T12:32:37;3.50;;;2.58;;
51814;SDS011;37874;53.158;6.766;2023-07-24T12:35:03;3.47;;;2.58;;
51814;SDS011;37874;53.158;6.766;2023-07-24T12:37:30;5.97;;;3.33;;
51814;SDS011;37874;53.158;6.766;2023-07-24T12:39:55;4.68;;;3.20;;
51814;SDS011;37874;53.158;6.766;2023-07-24T12:42:21;4.63;;;2.67;;
51814;SDS011;37874;53.158;6.766;2023-07-24T12:44:47;4.38;;;3.00;;
51814;SDS011;37874;53.158;6.766;2023-07-24T12:47:12;5.35;;;2.92;;
51814;SDS011;37874;53.158;6.766;2023-07-24T12:49:38;4.40;;;2.70;;
51814;SDS011;37874;53.158;6.766;2023-07-24T12:52:04;5.13;;;2.95;;
51814;SDS011;37874;53.158;6.766;2023-07-24T12:54:31;4.07;;;2.72;;
51814;SDS011;37874;53.158;6.766;2023-07-24T12:56:57;4.75;;;2.90;;
51814;SDS011;37874;53.158;6.766;2023-07-24T12:59:22;3.65;;;2.67;;
51814;SDS011;37874;53.158;6.766;2023-07-24T13:01:48;4.85;;;2.85;;
51814;SDS011;37874;53.158;6.766;2023-07-24T13:04:14;3.45;;;2.63;;
51814;SDS011;37874;53.158;6.766;2023-07-24T13:06:39;4.20;;;2.83;;
51814;SDS011;37874;53.158;6.766;2023-07-24T13:09:05;4.60;;;2.88;;
51814;SDS011;37874;53.158;6.766;2023-07-24T13:11:30;7.28;;;3.50;;
51814;SDS011;37874;53.158;6.766;2023-07-24T13:13:56;6.85;;;2.95;;
51814;SDS011;37874;53.158;6.766;2023-07-24T13:16:22;4.57;;;2.70;;
51814;SDS011;37874;53.158;6.766;2023-07-24T13:18:51;5.15;;;2.80;;
51814;SDS011;37874;53.158;6.766;2023-07-24T13:21:17;6.68;;;2.83;;
51814;SDS011;37874;53.158;6.766;2023-07-24T13:23:43;6.85;;;3.00;;
51814;SDS011;37874;53.158;6.766;2023-07-24T13:26:08;6.35;;;3.13;;
51814;SDS011;37874;53.158;6.766;2023-07-24T13:28:35;4.80;;;2.60;;
51814;SDS011;37874;53.158;6.766;2023-07-24T13:33:57;7.03;;;2.92;;
51814;SDS011;37874;53.158;6.766;2023-07-24T13:36:22;5.18;;;2.40;;
51814;SDS011;37874;53.158;6.766;2023-07-24T13:38:48;5.15;;;2.95;;
51814;SDS011;37874;53.158;6.766;2023-07-24T13:41:15;6.63;;;2.85;;
51814;SDS011;37874;53.158;6.766;2023-07-24T13:43:43;7.22;;;3.53;;
51814;SDS011;37874;53.158;6.766;2023-07-24T13:46:09;13.27;;;2.90;;
51814;SDS011;37874;53.158;6.766;2023-07-24T13:48:34;7.00;;;3.05;;
51814;SDS011;37874;53.158;6.766;2023-07-24T13:51:00;8.18;;;2.90;;
51814;SDS011;37874;53.158;6.766;2023-07-24T13:53:26;8.00;;;3.25;;
51814;SDS011;37874;53.158;6.766;2023-07-24T13:55:52;7.13;;;2.80;;
51814;SDS011;37874;53.158;6.766;2023-07-24T13:58:18;5.22;;;2.60;;
51814;SDS011;37874;53.158;6.766;2023-07-24T14:00:44;5.72;;;2.53;;
51814;SDS011;37874;53.158;6.766;2023-07-24T14:03:10;4.50;;;2.50;;
51814;SDS011;37874;53.158;6.766;2023-07-24T14:05:35;6.32;;;2.75;;
51814;SDS011;37874;53.158;6.766;2023-07-24T14:08:04;5.18;;;2.60;;
51814;SDS011;37874;53.158;6.766;2023-07-24T14:10:30;6.88;;;2.60;;
51814;SDS011;37874;53.158;6.766;2023-07-24T14:12:56;5.20;;;2.60;;
51814;SDS011;37874;53.158;6.766;2023-07-24T14:15:22;4.72;;;2.50;;
51814;SDS011;37874;53.158;6.766;2023-07-24T14:17:47;6.03;;;2.50;;
51814;SDS011;37874;53.158;6.766;2023-07-24T14:20:13;7.57;;;2.40;;
51814;SDS011;37874;53.158;6.766;2023-07-24T14:22:38;6.07;;;2.38;;
51814;SDS011;37874;53.158;6.766;2023-07-24T14:25:04;5.90;;;2.40;;
51814;SDS011;37874;53.158;6.766;2023-07-24T14:27:31;6.75;;;2.40;;
51814;SDS011;37874;53.158;6.766;2023-07-24T14:29:57;4.07;;;2.30;;
51814;SDS011;37874;53.158;6.766;2023-07-24T14:32:22;9.90;;;2.40;;
51814;SDS011;37874;53.158;6.766;2023-07-24T14:34:49;7.97;;;2.67;;
51814;SDS011;37874;53.158;6.766;2023-07-24T14:37:17;6.75;;;2.55;;
51814;SDS011;37874;53.158;6.766;2023-07-24T14:39:43;4.57;;;2.65;;
51814;SDS011;37874;53.158;6.766;2023-07-24T14:42:09;6.78;;;2.50;;
51814;SDS011;37874;53.158;6.766;2023-07-24T14:44:36;6.28;;;2.22;;
51814;SDS011;37874;53.158;6.766;2023-07-24T14:47:01;4.95;;;2.05;;
51814;SDS011;37874;53.158;6.766;2023-07-24T14:49:27;7.22;;;2.65;;
51814;SDS011;37874;53.158;6.766;2023-07-24T14:51:53;6.68;;;2.38;;
51814;SDS011;37874;53.158;6.766;2023-07-24T14:54:18;5.60;;;2.17;;
51814;SDS011;37874;53.158;6.766;2023-07-24T14:56:44;4.05;;;1.90;;
51814;SDS011;37874;53.158;6.766;2023-07-24T14:59:09;4.88;;;2.30;;
51814;SDS011;37874;53.158;6.766;2023-07-24T15:01:35;4.10;;;1.80;;
51814;SDS011;37874;53.158;6.766;2023-07-24T15:04:00;4.60;;;1.98;;
51814;SDS011;37874;53.158;6.766;2023-07-24T15:06:26;5.03;;;2.15;;
51814;SDS011;37874;53.158;6.766;2023-07-24T15:08:52;3.53;;;1.80;;
51814;SDS011;37874;53.158;6.766;2023-07-24T15:11:24;6.65;;;2.03;;
51814;SDS011;37874;53.158;6.766;2023-07-24T15:13:50;3.28;;;1.60;;
51814;SDS011;37874;53.158;6.766;2023-07-24T15:16:16;5.38;;;2.42;;
51814;SDS011;37874;53.158;6.766;2023-07-24T15:18:42;3.70;;;1.88;;
51814;SDS011;37874;53.158;6.766;2023-07-24T15:21:08;6.57;;;2.22;;
51814;SDS011;37874;53.158;6.766;2023-07-24T15:23:34;4.53;;;1.90;;
51814;SDS011;37874;53.158;6.766;2023-07-24T15:26:00;5.53;;;1.85;;
51814;SDS011;37874;53.158;6.766;2023-07-24T15:28:26;4.30;;;2.30;;
51814;SDS011;37874;53.158;6.766;2023-07-24T15:30:51;4.57;;;1.75;;
51814;SDS011;37874;53.158;6.766;2023-07-24T15:33:17;2.92;;;1.70;;
51814;SDS011;37874;53.158;6.766;2023-07-24T15:35:43;3.10;;;1.60;;
51814;SDS011;37874;53.158;6.766;2023-07-24T15:38:09;4.22;;;1.80;;
51814;SDS011;37874;53.158;6.766;2023-07-24T15:40:35;4.43;;;1.92;;
51814;SDS011;37874;53.158;6.766;2023-07-24T15:43:02;4.53;;;1.80;;
51814;SDS011;37874;53.158;6.766;2023-07-24T15:45:28;4.28;;;1.90;;
51814;SDS011;37874;53.158;6.766;2023-07-24T15:47:54;4.93;;;1.90;;
51814;SDS011;37874;53.158;6.766;2023-07-24T15:50:19;4.65;;;1.80;;
51814;SDS011;37874;53.158;6.766;2023-07-24T15:52:45;4.50;;;1.95;;
51814;SDS011;37874;53.158;6.766;2023-07-24T15:55:10;3.65;;;1.95;;
51814;SDS011;37874;53.158;6.766;2023-07-24T15:57:36;4.05;;;1.80;;
51814;SDS011;37874;53.158;6.766;2023-07-24T16:00:02;4.57;;;1.70;;
51814;SDS011;37874;53.158;6.766;2023-07-24T16:02:30;4.43;;;1.77;;
51814;SDS011;37874;53.158;6.766;2023-07-24T16:04:56;4.05;;;1.70;;
51814;SDS011;37874;53.158;6.766;2023-07-24T16:07:21;3.60;;;1.67;;
51814;SDS011;37874;53.158;6.766;2023-07-24T16:09:47;3.20;;;1.58;;
51814;SDS011;37874;53.158;6.766;2023-07-24T16:12:12;3.67;;;1.58;;
51814;SDS011;37874;53.158;6.766;2023-07-24T16:14:38;3.88;;;1.63;;
51814;SDS011;37874;53.158;6.766;2023-07-24T16:17:04;4.32;;;1.70;;
51814;SDS011;37874;53.158;6.766;2023-07-24T16:19:30;3.22;;;1.55;;
51814;SDS011;37874;53.158;6.766;2023-07-24T16:21:56;3.13;;;1.60;;
51814;SDS011;37874;53.158;6.766;2023-07-24T16:24:21;4.03;;;1.75;;
51814;SDS011;37874;53.158;6.766;2023-07-24T16:26:48;3.35;;;1.67;;
51814;SDS011;37874;53.158;6.766;2023-07-24T16:29:14;5.13;;;2.05;;
51814;SDS011;37874;53.158;6.766;2023-07-24T16:31:40;4.18;;;1.88;;
51814;SDS011;37874;53.158;6.766;2023-07-24T16:34:06;5.57;;;1.77;;
51814;SDS011;37874;53.158;6.766;2023-07-24T16:36:32;3.17;;;1.52;;
51814;SDS011;37874;53.158;6.766;2023-07-24T16:39:00;5.82;;;1.70;;
51814;SDS011;37874;53.158;6.766;2023-07-24T16:41:29;4.20;;;1.70;;
51814;SDS011;37874;53.158;6.766;2023-07-24T16:43:54;3.45;;;1.50;;
51814;SDS011;37874;53.158;6.766;2023-07-24T16:46:20;3.47;;;1.45;;
51814;SDS011;37874;53.158;6.766;2023-07-24T16:48:46;3.10;;;1.60;;
51814;SDS011;37874;53.158;6.766;2023-07-24T16:51:13;2.83;;;1.42;;
51814;SDS011;37874;53.158;6.766;2023-07-24T16:53:39;3.33;;;1.70;;
51814;SDS011;37874;53.158;6.766;2023-07-24T16:56:05;2.95;;;1.52;;
51814;SDS011;37874;53.158;6.766;2023-07-24T16:58:30;2.53;;;1.40;;